createdAt,value
2019-02-18T00:02:25.264Z,32.20
2019-02-18T00:04:53.944Z,29.50
2019-02-18T00:07:22.720Z,32.95
2019-02-18T00:09:51.519Z,30.40
2019-02-18T00:12:20.306Z,33.20
2019-02-18T00:14:49.107Z,30.60
2019-02-18T00:17:17.792Z,27.98
2019-02-18T00:19:46.662Z,29.60
2019-02-18T00:22:15.362Z,30.45
2019-02-18T00:24:44.147Z,28.57
2019-02-18T00:27:12.853Z,27.45
2019-02-18T00:29:41.536Z,28.85
2019-02-18T00:32:10.227Z,26.62
2019-02-18T00:34:38.895Z,30.95
2019-02-18T00:37:07.582Z,28.95
2019-02-18T00:39:36.296Z,26.55
2019-02-18T00:42:04.995Z,31.70
2019-02-18T00:44:33.702Z,31.55
2019-02-18T00:47:02.415Z,27.62
2019-02-18T00:49:31.122Z,28.38
2019-02-18T00:51:59.802Z,27.80
2019-02-18T00:54:28.574Z,26.77
2019-02-18T00:56:57.268Z,24.90
2019-02-18T00:59:25.992Z,27.95
2019-02-18T01:01:54.656Z,27.98
2019-02-18T01:04:23.358Z,28.02
2019-02-18T01:06:52.055Z,25.88
2019-02-18T01:09:20.771Z,29.07
2019-02-18T01:11:49.772Z,25.23
2019-02-18T01:14:18.472Z,25.50
2019-02-18T01:16:47.140Z,22.93
2019-02-18T01:19:15.892Z,27.05
2019-02-18T01:21:44.575Z,23.67
2019-02-18T01:24:13.256Z,25.45
2019-02-18T01:26:42.119Z,25.97
2019-02-18T01:29:10.800Z,25.15
2019-02-18T01:31:39.564Z,25.88
2019-02-18T01:34:08.246Z,26.30
2019-02-18T01:36:37.141Z,24.98
2019-02-18T01:39:06.423Z,24.07
2019-02-18T01:41:35.130Z,21.77
2019-02-18T01:44:03.836Z,26.70
2019-02-18T01:46:32.512Z,24.37
2019-02-18T01:49:01.294Z,22.25
2019-02-18T01:51:30.079Z,23.67
2019-02-18T01:53:58.770Z,25.17
2019-02-18T01:56:27.471Z,25.50
2019-02-18T01:58:56.243Z,22.62
2019-02-18T02:01:25.027Z,23.38
2019-02-18T02:03:53.805Z,23.05
2019-02-18T02:06:22.788Z,22.98
2019-02-18T02:08:51.535Z,23.70
2019-02-18T02:11:23.338Z,23.57
2019-02-18T02:13:52.339Z,23.73
2019-02-18T02:16:21.046Z,24.25
2019-02-18T02:18:49.808Z,23.40
2019-02-18T02:21:18.512Z,23.15
2019-02-18T02:23:47.314Z,23.40
2019-02-18T02:26:15.964Z,24.02
2019-02-18T02:28:44.752Z,22.95
2019-02-18T02:31:13.540Z,23.47
2019-02-18T02:33:42.280Z,23.57
2019-02-18T02:36:10.964Z,23.52
2019-02-18T02:38:39.707Z,26.87
2019-02-18T02:41:08.524Z,21.87
2019-02-18T02:43:37.274Z,22.90
2019-02-18T02:46:06.066Z,24.27
2019-02-18T02:48:34.866Z,24.32
2019-02-18T02:51:03.647Z,22.13
2019-02-18T02:53:32.334Z,24.15
2019-02-18T02:56:01.114Z,24.05
2019-02-18T02:58:29.798Z,21.55
2019-02-18T03:00:58.600Z,22.98
2019-02-18T03:03:27.364Z,20.82
2019-02-18T03:05:56.170Z,25.37
2019-02-18T03:08:25.183Z,23.27
2019-02-18T03:10:53.979Z,22.17
2019-02-18T03:13:22.743Z,21.65
2019-02-18T03:15:51.734Z,23.38
2019-02-18T03:18:20.527Z,21.70
2019-02-18T03:20:49.292Z,23.35
2019-02-18T03:23:17.978Z,23.85
2019-02-18T03:25:48.081Z,21.00
2019-02-18T03:28:36.226Z,21.10
2019-02-18T03:31:11.161Z,21.68
2019-02-18T03:33:43.220Z,20.80
2019-02-18T03:36:11.938Z,21.90
2019-02-18T03:38:40.626Z,21.48
2019-02-18T03:41:09.399Z,22.37
2019-02-18T03:43:38.185Z,20.70
2019-02-18T03:46:06.971Z,20.97
2019-02-18T03:48:35.964Z,23.62
2019-02-18T03:51:04.757Z,22.67
2019-02-18T03:53:33.534Z,23.18
2019-02-18T03:56:02.328Z,19.50
2019-02-18T03:58:31.124Z,20.32
2019-02-18T04:00:59.823Z,21.57
2019-02-18T04:03:28.694Z,19.95
2019-02-18T04:05:57.395Z,18.92
2019-02-18T04:08:26.179Z,20.48
2019-02-18T04:10:55.166Z,19.82
2019-02-18T04:13:23.912Z,22.35
2019-02-18T04:15:52.743Z,20.57
2019-02-18T04:18:21.516Z,19.95
2019-02-18T04:20:50.430Z,20.30
2019-02-18T04:23:19.224Z,20.35
2019-02-18T04:25:48.188Z,20.82
2019-02-18T04:28:16.974Z,20.65
2019-02-18T04:30:45.763Z,18.92
2019-02-18T04:33:14.472Z,21.62
2019-02-18T04:35:43.249Z,17.57
2019-02-18T04:38:11.941Z,19.65
2019-02-18T04:40:40.711Z,19.27
2019-02-18T04:43:09.495Z,20.20
2019-02-18T04:45:38.292Z,21.37
2019-02-18T04:48:07.285Z,21.33
2019-02-18T04:50:35.972Z,22.37
2019-02-18T04:53:04.756Z,22.17
2019-02-18T04:55:33.554Z,20.12
2019-02-18T04:58:02.336Z,19.10
2019-02-18T05:00:32.253Z,21.37
2019-02-18T05:03:00.974Z,19.27
2019-02-18T05:05:31.248Z,20.77
2019-02-18T05:08:00.043Z,19.35
2019-02-18T05:10:28.731Z,18.17
2019-02-18T05:12:57.529Z,21.73
2019-02-18T05:15:26.214Z,17.65
2019-02-18T05:17:55.006Z,19.75
2019-02-18T05:20:23.794Z,19.67
2019-02-18T05:22:52.567Z,20.30
2019-02-18T05:25:21.295Z,19.42
2019-02-18T05:27:50.143Z,18.17
2019-02-18T05:30:18.841Z,18.60
2019-02-18T05:32:47.820Z,17.57
2019-02-18T05:35:16.760Z,17.77
2019-02-18T05:37:45.609Z,19.25
2019-02-18T05:40:14.632Z,18.80
2019-02-18T05:42:43.542Z,19.00
2019-02-18T05:45:12.525Z,17.80
2019-02-18T05:47:41.319Z,20.52
2019-02-18T05:50:10.093Z,18.73
2019-02-18T05:52:38.992Z,20.57
2019-02-18T05:55:08.082Z,20.68
2019-02-18T05:57:36.972Z,20.32
2019-02-18T06:00:11.143Z,21.57
2019-02-18T06:02:39.873Z,19.95
2019-02-18T06:05:08.768Z,20.37
2019-02-18T06:07:37.547Z,18.25
2019-02-18T06:10:08.745Z,22.13
2019-02-18T06:12:37.442Z,22.42
2019-02-18T06:15:08.753Z,20.68
2019-02-18T06:17:37.442Z,23.12
2019-02-18T06:20:08.653Z,22.75
2019-02-18T06:22:38.742Z,39.73
2019-02-18T06:25:07.905Z,42.75
2019-02-18T06:27:36.863Z,46.30
2019-02-18T06:30:08.103Z,43.73
2019-02-18T06:32:37.069Z,40.17
2019-02-18T06:35:06.706Z,37.38
2019-02-18T06:37:35.908Z,34.50
2019-02-18T06:40:06.870Z,34.65
2019-02-18T06:42:35.787Z,33.25
2019-02-18T06:45:24.663Z,36.98
2019-02-18T06:47:54.527Z,31.02
2019-02-18T06:50:24.216Z,30.97
2019-02-18T06:52:53.167Z,31.48
2019-02-18T06:55:22.092Z,29.92
2019-02-18T06:58:01.325Z,31.35
2019-02-18T07:00:40.361Z,30.25
2019-02-18T07:03:10.782Z,26.73
2019-02-18T07:05:46.942Z,30.70
2019-02-18T07:08:17.373Z,28.73
2019-02-18T07:10:47.702Z,29.05
2019-02-18T07:13:16.464Z,25.95
2019-02-18T07:15:45.279Z,29.87
2019-02-18T07:18:14.162Z,135.88
2019-02-18T07:20:42.843Z,76.53
2019-02-18T07:23:11.614Z,69.10
2019-02-18T07:25:42.861Z,62.95
2019-02-18T07:28:11.663Z,65.08
2019-02-18T07:30:40.453Z,59.15
2019-02-18T07:33:09.245Z,54.60
2019-02-18T07:35:38.013Z,51.13
2019-02-18T07:38:06.812Z,52.30
2019-02-18T07:40:35.592Z,46.58
2019-02-18T07:43:04.372Z,44.23
2019-02-18T07:45:33.209Z,45.60
2019-02-18T07:48:01.962Z,42.05
2019-02-18T07:50:31.426Z,43.30
2019-02-18T07:53:00.780Z,38.17
2019-02-18T07:55:29.682Z,39.18
2019-02-18T07:58:10.855Z,36.75
2019-02-18T08:00:40.993Z,33.40
2019-02-18T08:03:09.848Z,33.28
2019-02-18T08:05:38.742Z,33.08
2019-02-18T08:08:07.650Z,29.50
2019-02-18T08:10:36.506Z,29.10
2019-02-18T08:13:05.306Z,29.95
2019-02-18T08:15:34.153Z,34.90
2019-02-18T08:18:03.313Z,29.27
2019-02-18T08:20:32.279Z,27.98
2019-02-18T08:23:01.392Z,25.95
2019-02-18T08:25:30.398Z,27.10
2019-02-18T08:27:59.160Z,26.23
2019-02-18T08:30:27.943Z,24.05
2019-02-18T08:32:56.843Z,25.30
2019-02-18T08:35:25.928Z,22.62
2019-02-18T08:37:54.719Z,22.07
2019-02-18T08:40:23.462Z,21.33
2019-02-18T08:42:52.291Z,20.45
2019-02-18T08:45:21.086Z,23.15
2019-02-18T08:47:49.871Z,19.70
2019-02-18T08:50:18.651Z,20.20
2019-02-18T08:52:47.510Z,21.40
2019-02-18T08:55:16.442Z,20.77
2019-02-18T08:57:45.328Z,20.32
2019-02-18T09:00:16.856Z,18.00
2019-02-18T09:02:45.567Z,18.82
2019-02-18T09:05:14.382Z,17.77
2019-02-18T09:07:53.775Z,20.62
2019-02-18T09:10:33.210Z,22.32
2019-02-18T09:12:54.187Z,17.98
2019-02-18T09:15:22.905Z,17.75
2019-02-18T09:17:51.987Z,19.07
2019-02-18T09:20:20.711Z,18.87
2019-02-18T09:22:53.708Z,17.17
2019-02-18T09:25:27.120Z,16.57
2019-02-18T09:27:55.788Z,17.90
2019-02-18T09:30:27.365Z,17.45
2019-02-18T09:32:56.107Z,18.25
2019-02-18T09:35:24.787Z,18.20
2019-02-18T09:37:53.589Z,17.07
2019-02-18T09:40:22.316Z,18.57
2019-02-18T09:42:51.035Z,18.75
2019-02-18T09:45:19.753Z,17.37
2019-02-18T09:47:48.407Z,20.80
2019-02-18T09:50:17.198Z,16.93
2019-02-18T09:52:46.100Z,18.05
2019-02-18T09:55:14.796Z,16.97
2019-02-18T09:57:43.475Z,19.17
2019-02-18T10:00:12.890Z,17.60
2019-02-18T10:02:41.598Z,18.90
2019-02-18T10:05:10.396Z,17.30
2019-02-18T10:07:39.250Z,19.73
2019-02-18T10:10:10.488Z,18.02
2019-02-18T10:12:39.282Z,17.37
2019-02-18T10:15:10.298Z,20.02
2019-02-18T10:17:39.107Z,17.75
2019-02-18T10:20:13.108Z,19.12
2019-02-18T10:22:41.890Z,17.92
2019-02-18T10:25:12.209Z,21.20
2019-02-18T10:27:40.988Z,22.30
2019-02-18T10:30:11.458Z,23.18
2019-02-18T10:32:40.331Z,27.13
2019-02-18T10:35:11.249Z,27.20
2019-02-18T10:37:40.088Z,26.05
2019-02-18T10:40:10.167Z,23.38
2019-02-18T10:42:39.168Z,20.08
2019-02-18T10:45:12.578Z,22.30
2019-02-18T10:47:41.349Z,20.80
2019-02-18T10:50:11.285Z,22.17
2019-02-18T10:52:40.056Z,21.85
2019-02-18T10:55:12.528Z,23.75
2019-02-18T10:57:41.617Z,22.93
2019-02-18T11:00:17.609Z,21.93
2019-02-18T11:02:48.108Z,21.73
2019-02-18T11:05:16.928Z,22.95
2019-02-18T11:07:45.787Z,23.27
2019-02-18T11:10:16.692Z,20.43
2019-02-18T11:12:47.659Z,20.35
2019-02-18T11:15:16.758Z,20.37
2019-02-18T11:17:46.372Z,19.85
2019-02-18T11:20:16.802Z,19.73
2019-02-18T11:22:45.468Z,20.95
2019-02-18T11:25:15.397Z,21.17
2019-02-18T11:27:44.168Z,20.72
2019-02-18T11:30:17.068Z,22.77
2019-02-18T11:32:45.847Z,22.17
2019-02-18T11:35:15.565Z,22.30
2019-02-18T11:37:44.247Z,22.60
2019-02-18T11:40:18.041Z,22.55
2019-02-18T11:42:46.764Z,19.60
2019-02-18T11:45:17.449Z,21.45
2019-02-18T11:47:46.128Z,20.37
2019-02-18T11:50:15.366Z,23.57
2019-02-18T11:52:44.247Z,19.75
2019-02-18T11:55:13.891Z,23.80
2019-02-18T11:57:43.100Z,20.52
2019-02-18T12:00:13.435Z,20.68
2019-02-18T12:02:42.122Z,22.35
2019-02-18T12:05:11.360Z,21.70
2019-02-18T12:07:40.124Z,23.20
2019-02-18T12:10:13.412Z,25.12
2019-02-18T12:12:42.444Z,23.83
2019-02-18T12:15:15.966Z,24.43
2019-02-18T12:17:44.814Z,23.80
2019-02-18T12:20:15.364Z,23.87
2019-02-18T12:22:44.121Z,26.97
2019-02-18T12:25:13.495Z,29.30
2019-02-18T12:27:42.632Z,29.10
2019-02-18T12:30:13.439Z,28.80
2019-02-18T12:32:42.250Z,24.15
2019-02-18T12:35:11.016Z,28.38
2019-02-18T12:37:39.750Z,29.95
2019-02-18T12:40:13.474Z,27.85
2019-02-18T12:42:42.642Z,30.50
2019-02-18T12:45:13.403Z,29.70
2019-02-18T12:47:42.268Z,28.20
2019-02-18T12:50:11.961Z,25.27
2019-02-18T12:52:40.691Z,25.48
2019-02-18T12:55:10.546Z,28.05
2019-02-18T12:57:39.666Z,26.57
2019-02-18T13:00:11.350Z,26.02
2019-02-18T13:02:44.360Z,27.70
2019-02-18T13:05:11.251Z,26.93
2019-02-18T13:07:39.963Z,27.77
2019-02-18T13:10:09.952Z,26.20
2019-02-18T13:12:38.643Z,27.45
2019-02-18T13:15:10.913Z,28.65
2019-02-18T13:17:39.720Z,26.57
2019-02-18T13:20:08.861Z,23.62
2019-02-18T13:22:37.544Z,26.42
2019-02-18T13:25:07.539Z,25.43
2019-02-18T13:27:36.244Z,23.75
2019-02-18T13:30:19.727Z,23.73
2019-02-18T13:32:48.419Z,22.67
2019-02-18T13:35:17.207Z,23.02
2019-02-18T13:37:45.941Z,24.45
2019-02-18T13:40:16.199Z,22.30
2019-02-18T13:42:45.426Z,22.05
2019-02-18T13:45:14.156Z,19.40
2019-02-18T13:47:42.836Z,19.00
2019-02-18T13:50:12.833Z,20.92
2019-02-18T13:52:41.558Z,21.52
2019-02-18T13:55:11.640Z,22.05
2019-02-18T13:57:40.726Z,22.95
2019-02-18T14:00:14.254Z,22.02
2019-02-18T14:02:42.962Z,21.90
2019-02-18T14:05:11.682Z,23.92
2019-02-18T14:07:40.392Z,20.68
2019-02-18T14:10:09.076Z,21.55
2019-02-18T14:12:38.177Z,22.95
2019-02-18T14:15:09.775Z,21.45
2019-02-18T14:17:38.459Z,26.33
2019-02-18T14:20:10.295Z,27.95
2019-02-18T14:22:38.956Z,31.27
2019-02-18T14:25:09.287Z,32.88
2019-02-18T14:27:37.967Z,30.08
2019-02-18T14:30:14.971Z,26.85
2019-02-18T14:32:43.657Z,28.80
2019-02-18T14:35:12.436Z,26.65
2019-02-18T14:37:41.347Z,25.62
2019-02-18T14:40:12.006Z,26.87
2019-02-18T14:42:40.748Z,29.60
2019-02-18T14:45:09.971Z,26.50
2019-02-18T14:47:38.859Z,28.20
2019-02-18T14:50:10.656Z,27.05
2019-02-18T14:52:39.351Z,27.48
2019-02-18T14:55:09.116Z,26.07
2019-02-18T14:57:38.100Z,25.62
2019-02-18T15:00:12.820Z,23.32
2019-02-18T15:02:41.620Z,21.30
2019-02-18T15:05:10.401Z,23.47
2019-02-18T15:07:39.290Z,25.15
2019-02-18T15:10:09.811Z,20.25
2019-02-18T15:12:38.518Z,23.57
2019-02-18T15:15:07.329Z,23.45
2019-02-18T15:17:36.069Z,22.55
2019-02-18T15:20:06.428Z,25.45
2019-02-18T15:22:35.480Z,22.87
2019-02-18T15:25:05.469Z,25.08
2019-02-18T15:27:34.197Z,23.87
2019-02-18T15:30:03.376Z,23.32
2019-02-18T15:32:32.048Z,23.67
2019-02-18T15:35:00.740Z,22.00
2019-02-18T15:37:29.478Z,22.67
2019-02-18T15:39:58.208Z,20.97
2019-02-18T15:42:26.933Z,20.55
2019-02-18T15:44:55.718Z,22.07
2019-02-18T15:47:24.491Z,19.62
2019-02-18T15:49:53.192Z,22.00
2019-02-18T15:52:21.881Z,20.15
2019-02-18T15:54:50.585Z,22.22
2019-02-18T15:57:20.261Z,19.25
2019-02-18T15:59:48.963Z,18.50
2019-02-18T16:02:17.758Z,22.98
2019-02-18T16:04:46.488Z,22.87
2019-02-18T16:07:15.188Z,23.32
2019-02-18T16:09:48.807Z,27.35
2019-02-18T16:12:17.514Z,27.73
2019-02-18T16:14:46.254Z,41.75
2019-02-18T16:17:14.931Z,70.22
2019-02-18T16:19:43.647Z,54.48
2019-02-18T16:22:12.326Z,43.85
2019-02-18T16:24:41.424Z,37.20
2019-02-18T16:27:10.110Z,35.40
2019-02-18T16:29:38.806Z,36.10
2019-02-18T16:32:07.498Z,35.05
2019-02-18T16:34:36.196Z,32.23
2019-02-18T16:37:05.363Z,32.70
2019-02-18T16:39:35.011Z,33.85
2019-02-18T16:42:03.915Z,33.13
2019-02-18T16:44:32.632Z,32.78
2019-02-18T16:47:01.370Z,35.85
2019-02-18T16:49:30.042Z,31.10
2019-02-18T16:52:01.605Z,32.35
2019-02-18T16:54:30.474Z,30.55
2019-02-18T16:56:59.157Z,31.85
2019-02-18T16:59:27.871Z,30.48
2019-02-18T17:01:56.623Z,31.37
2019-02-18T17:04:27.278Z,32.60
2019-02-18T17:06:55.680Z,31.25
2019-02-18T17:09:24.651Z,28.47
2019-02-18T17:11:53.400Z,31.55
2019-02-18T17:14:23.120Z,28.60
2019-02-18T17:16:51.882Z,28.73
2019-02-18T17:19:20.596Z,30.00
2019-02-18T17:21:49.253Z,24.60
2019-02-18T17:24:18.384Z,26.42
2019-02-18T17:26:47.047Z,29.82
2019-02-18T17:29:15.694Z,27.93
2019-02-18T17:31:44.411Z,29.00
2019-02-18T17:34:13.092Z,29.05
2019-02-18T17:36:41.804Z,24.90
2019-02-18T17:39:10.492Z,28.73
2019-02-18T17:41:39.242Z,26.60
2019-02-18T17:44:07.923Z,24.10
2019-02-18T17:46:36.650Z,27.10
2019-02-18T17:49:05.302Z,24.25
2019-02-18T17:51:34.037Z,26.52
2019-02-18T17:54:02.921Z,24.07
2019-02-18T17:56:31.992Z,22.37
2019-02-18T17:59:00.712Z,21.48
2019-02-18T18:01:29.542Z,22.05
2019-02-18T18:03:58.242Z,24.25
2019-02-18T18:06:26.862Z,23.38
2019-02-18T18:08:55.557Z,22.15
2019-02-18T18:11:24.242Z,21.55
2019-02-18T18:13:52.984Z,22.02
2019-02-18T18:16:21.673Z,20.70
2019-02-18T18:18:50.471Z,21.25
2019-02-18T18:21:19.172Z,21.68
2019-02-18T18:23:47.865Z,20.48
2019-02-18T18:26:16.532Z,21.55
2019-02-18T18:28:45.253Z,23.73
2019-02-18T18:31:13.978Z,24.23
2019-02-18T18:33:42.644Z,22.20
2019-02-18T18:36:11.350Z,24.20
2019-02-18T18:38:40.032Z,25.35
2019-02-18T18:41:08.729Z,19.32
2019-02-18T18:43:37.510Z,22.25
2019-02-18T18:46:06.196Z,21.23
2019-02-18T18:48:34.935Z,23.25
2019-02-18T18:51:03.644Z,20.57
2019-02-18T18:53:32.335Z,24.63
2019-02-18T18:56:01.075Z,21.77
2019-02-18T18:58:30.165Z,24.15
2019-02-18T19:00:58.891Z,25.88
2019-02-18T19:03:27.568Z,24.57
2019-02-18T19:05:56.257Z,27.30
2019-02-18T19:08:24.984Z,22.25
2019-02-18T19:10:53.655Z,23.77
2019-02-18T19:13:22.716Z,24.07
2019-02-18T19:15:51.456Z,25.37
2019-02-18T19:18:20.136Z,22.77
2019-02-18T19:20:49.875Z,27.17
2019-02-18T19:23:18.566Z,26.23
2019-02-18T19:25:47.235Z,23.32
2019-02-18T19:28:16.087Z,24.02
2019-02-18T19:30:45.030Z,24.52
2019-02-18T19:33:13.725Z,26.50
2019-02-18T19:35:42.486Z,26.15
2019-02-18T19:38:11.176Z,26.87
2019-02-18T19:40:39.925Z,26.70
2019-02-18T19:43:08.974Z,24.12
2019-02-18T19:45:37.665Z,25.35
2019-02-18T19:48:06.405Z,27.55
2019-02-18T19:50:35.129Z,23.12
2019-02-18T19:53:03.855Z,26.90
2019-02-18T19:55:32.546Z,26.42
2019-02-18T19:58:01.397Z,24.92
2019-02-18T20:00:30.095Z,27.58
2019-02-18T20:02:58.877Z,24.50
2019-02-18T20:05:27.575Z,26.42
2019-02-18T20:07:56.326Z,26.60
2019-02-18T20:10:25.028Z,24.82
2019-02-18T20:12:54.155Z,24.90
2019-02-18T20:15:22.965Z,27.50
2019-02-18T20:17:51.693Z,23.70
2019-02-18T20:20:20.454Z,24.60
2019-02-18T20:22:49.186Z,23.40
2019-02-18T20:25:17.886Z,26.60
2019-02-18T20:27:47.008Z,25.57
2019-02-18T20:30:18.656Z,24.32
2019-02-18T20:32:47.473Z,25.05
2019-02-18T20:35:16.276Z,23.80
2019-02-18T20:37:44.985Z,23.55
2019-02-18T20:40:14.747Z,22.77
2019-02-18T20:42:43.833Z,23.30
2019-02-18T20:45:13.397Z,22.20
2019-02-18T20:47:42.161Z,22.93
2019-02-18T20:50:12.383Z,25.30
2019-02-18T20:52:43.265Z,24.05
2019-02-18T20:55:13.381Z,22.93
2019-02-18T20:57:42.096Z,23.75
2019-02-18T21:00:19.936Z,24.35
2019-02-18T21:02:48.688Z,23.22
2019-02-18T21:05:17.415Z,23.73
2019-02-18T21:07:46.115Z,23.07
2019-02-18T21:10:20.171Z,23.20
2019-02-18T21:12:48.858Z,24.80
2019-02-18T21:15:17.564Z,23.67
2019-02-18T21:17:48.979Z,24.37
2019-02-18T21:20:18.658Z,23.50
2019-02-18T21:22:47.875Z,25.15
2019-02-18T21:25:16.591Z,22.05
2019-02-18T21:27:47.305Z,22.10
2019-02-18T21:30:17.092Z,23.02
2019-02-18T21:32:45.792Z,23.95
2019-02-18T21:35:14.628Z,21.02
2019-02-18T21:37:43.823Z,24.72
2019-02-18T21:40:12.611Z,24.82
2019-02-18T21:42:41.390Z,24.40
2019-02-18T21:45:12.869Z,24.52
2019-02-18T21:47:41.602Z,23.27
2019-02-18T21:50:10.805Z,23.80
2019-02-18T21:52:40.098Z,22.80
2019-02-18T21:55:10.211Z,22.32
2019-02-18T21:57:38.900Z,21.25
2019-02-18T22:00:12.267Z,22.30
2019-02-18T22:02:41.837Z,23.05
2019-02-18T22:05:10.587Z,23.45
2019-02-18T22:07:39.274Z,21.40
2019-02-18T22:10:09.294Z,22.15
2019-02-18T22:12:37.986Z,21.85
2019-02-18T22:15:08.476Z,24.15
2019-02-18T22:17:37.295Z,21.50
2019-02-18T22:20:08.714Z,23.90
2019-02-18T22:22:37.734Z,22.90
2019-02-18T22:25:11.083Z,22.45
2019-02-18T22:27:39.755Z,23.07
2019-02-18T22:30:11.647Z,20.65
2019-02-18T22:32:40.348Z,23.27
2019-02-18T22:35:09.029Z,24.45
2019-02-18T22:37:38.047Z,24.43
2019-02-18T22:40:08.645Z,21.50
2019-02-18T22:42:37.351Z,23.10
2019-02-18T22:45:07.343Z,22.05
2019-02-18T22:47:36.055Z,21.05
2019-02-18T22:50:04.963Z,22.25
2019-02-18T22:52:34.055Z,21.42
2019-02-18T22:55:02.819Z,21.42
2019-02-18T22:57:31.512Z,23.98
2019-02-18T23:00:00.264Z,22.00
2019-02-18T23:02:29.019Z,21.48
2019-02-18T23:04:57.708Z,22.20
2019-02-18T23:07:26.415Z,22.75
2019-02-18T23:09:55.099Z,21.07
2019-02-18T23:12:23.834Z,22.55
2019-02-18T23:14:52.530Z,24.85
2019-02-18T23:17:21.223Z,23.75
2019-02-18T23:19:49.934Z,23.10
2019-02-18T23:22:18.634Z,22.80
2019-02-18T23:24:47.623Z,22.20
2019-02-18T23:27:16.498Z,22.65
2019-02-18T23:29:45.365Z,24.25
2019-02-18T23:32:14.122Z,22.20
2019-02-18T23:34:42.811Z,25.15
2019-02-18T23:37:11.500Z,22.37
2019-02-18T23:39:40.204Z,24.18
2019-02-18T23:42:08.904Z,23.60
2019-02-18T23:44:37.888Z,21.30
2019-02-18T23:47:06.652Z,23.77
2019-02-18T23:49:35.334Z,23.65
2019-02-18T23:52:04.137Z,27.40
2019-02-18T23:54:32.827Z,23.40
2019-02-18T23:57:01.506Z,22.70
2019-02-18T23:59:30.224Z,25.65
